sensor_id;sensor_type;location;lat;lon;timestamp;P1;durP1;ratioP1;P2;durP2;ratioP2
10096;SDS011;5087;42.662;23.466;2023-07-31T00:00:28;0.00;;;0.00;;
10096;SDS011;5087;42.662;23.466;2023-07-31T00:02:57;0.00;;;0.00;;
10096;SDS011;5087;42.662;23.466;2023-07-31T00:05:24;0.00;;;0.00;;
10096;SDS011;5087;42.662;23.466;2023-07-31T00:07:51;0.00;;;0.00;;
10096;SDS011;5087;42.662;23.466;2023-07-31T00:10:20;0.00;;;0.00;;
10096;SDS011;5087;42.662;23.466;2023-07-31T00:12:47;0.00;;;0.00;;
10096;SDS011;5087;42.662;23.466;2023-07-31T00:15:15;0.57;;;0.13;;
10096;SDS011;5087;42.662;23.466;2023-07-31T00:17:42;0.00;;;0.00;;
10096;SDS011;5087;42.662;23.466;2023-07-31T00:20:12;0.10;;;0.10;;
10096;SDS011;5087;42.662;23.466;2023-07-31T00:22:39;0.10;;;0.10;;
10096;SDS011;5087;42.662;23.466;2023-07-31T00:25:06;0.20;;;0.20;;
10096;SDS011;5087;42.662;23.466;2023-07-31T00:27:34;0.10;;;0.10;;
10096;SDS011;5087;42.662;23.466;2023-07-31T00:30:04;0.10;;;0.10;;
10096;SDS011;5087;42.662;23.466;2023-07-31T00:32:32;0.20;;;0.20;;
10096;SDS011;5087;42.662;23.466;2023-07-31T00:34:59;0.20;;;0.20;;
10096;SDS011;5087;42.662;23.466;2023-07-31T00:37:31;0.20;;;0.20;;
10096;SDS011;5087;42.662;23.466;2023-07-31T00:39:59;0.10;;;0.10;;
10096;SDS011;5087;42.662;23.466;2023-07-31T00:42:29;0.10;;;0.10;;
10096;SDS011;5087;42.662;23.466;2023-07-31T00:44:56;0.20;;;0.20;;
10096;SDS011;5087;42.662;23.466;2023-07-31T00:47:23;0.30;;;0.30;;
10096;SDS011;5087;42.662;23.466;2023-07-31T00:49:52;0.30;;;0.30;;
10096;SDS011;5087;42.662;23.466;2023-07-31T00:52:19;0.30;;;0.30;;
10096;SDS011;5087;42.662;23.466;2023-07-31T00:54:51;0.30;;;0.30;;
10096;SDS011;5087;42.662;23.466;2023-07-31T00:57:21;0.30;;;0.30;;
10096;SDS011;5087;42.662;23.466;2023-07-31T00:59:52;0.30;;;0.30;;
10096;SDS011;5087;42.662;23.466;2023-07-31T01:02:19;0.23;;;0.23;;
10096;SDS011;5087;42.662;23.466;2023-07-31T01:04:47;0.30;;;0.30;;
10096;SDS011;5087;42.662;23.466;2023-07-31T01:07:17;0.30;;;0.30;;
10096;SDS011;5087;42.662;23.466;2023-07-31T01:09:52;0.20;;;0.20;;
10096;SDS011;5087;42.662;23.466;2023-07-31T01:12:29;0.20;;;0.20;;
10096;SDS011;5087;42.662;23.466;2023-07-31T01:15:04;0.20;;;0.20;;
10096;SDS011;5087;42.662;23.466;2023-07-31T01:17:37;0.23;;;0.23;;
10096;SDS011;5087;42.662;23.466;2023-07-31T01:20:05;0.27;;;0.27;;
10096;SDS011;5087;42.662;23.466;2023-07-31T01:22:45;0.20;;;0.20;;
10096;SDS011;5087;42.662;23.466;2023-07-31T01:25:32;0.20;;;0.20;;
10096;SDS011;5087;42.662;23.466;2023-07-31T01:28:14;0.20;;;0.20;;
10096;SDS011;5087;42.662;23.466;2023-07-31T01:30:47;0.20;;;0.20;;
10096;SDS011;5087;42.662;23.466;2023-07-31T01:33:15;0.20;;;0.20;;
10096;SDS011;5087;42.662;23.466;2023-07-31T01:35:46;0.20;;;0.20;;
10096;SDS011;5087;42.662;23.466;2023-07-31T01:38:15;0.10;;;0.10;;
10096;SDS011;5087;42.662;23.466;2023-07-31T01:40:50;0.10;;;0.10;;
10096;SDS011;5087;42.662;23.466;2023-07-31T01:43:18;0.10;;;0.10;;
10096;SDS011;5087;42.662;23.466;2023-07-31T01:45:45;0.10;;;0.10;;
10096;SDS011;5087;42.662;23.466;2023-07-31T01:48:13;0.40;;;0.40;;
10096;SDS011;5087;42.662;23.466;2023-07-31T01:50:40;0.00;;;0.00;;
10096;SDS011;5087;42.662;23.466;2023-07-31T01:53:08;0.10;;;0.10;;
10096;SDS011;5087;42.662;23.466;2023-07-31T01:55:35;0.13;;;0.13;;
10096;SDS011;5087;42.662;23.466;2023-07-31T01:58:03;0.13;;;0.13;;
10096;SDS011;5087;42.662;23.466;2023-07-31T02:00:31;0.00;;;0.00;;
10096;SDS011;5087;42.662;23.466;2023-07-31T02:02:59;0.00;;;0.00;;
10096;SDS011;5087;42.662;23.466;2023-07-31T02:05:26;0.00;;;0.00;;
10096;SDS011;5087;42.662;23.466;2023-07-31T02:07:53;0.00;;;0.00;;
10096;SDS011;5087;42.662;23.466;2023-07-31T02:10:26;0.00;;;0.00;;
10096;SDS011;5087;42.662;23.466;2023-07-31T02:12:53;0.00;;;0.00;;
10096;SDS011;5087;42.662;23.466;2023-07-31T02:15:25;0.00;;;0.00;;
10096;SDS011;5087;42.662;23.466;2023-07-31T02:17:52;0.00;;;0.00;;
10096;SDS011;5087;42.662;23.466;2023-07-31T02:20:19;0.00;;;0.00;;
10096;SDS011;5087;42.662;23.466;2023-07-31T02:22:46;0.00;;;0.00;;
10096;SDS011;5087;42.662;23.466;2023-07-31T02:25:14;0.00;;;0.00;;
10096;SDS011;5087;42.662;23.466;2023-07-31T02:27:41;0.00;;;0.00;;
10096;SDS011;5087;42.662;23.466;2023-07-31T02:30:09;0.10;;;0.10;;
10096;SDS011;5087;42.662;23.466;2023-07-31T02:32:38;0.00;;;0.00;;
10096;SDS011;5087;42.662;23.466;2023-07-31T02:35:06;0.00;;;0.00;;
10096;SDS011;5087;42.662;23.466;2023-07-31T02:37:33;0.03;;;0.00;;
10096;SDS011;5087;42.662;23.466;2023-07-31T02:40:01;0.20;;;0.20;;
10096;SDS011;5087;42.662;23.466;2023-07-31T02:42:28;0.00;;;0.00;;
10096;SDS011;5087;42.662;23.466;2023-07-31T02:44:56;0.00;;;0.00;;
10096;SDS011;5087;42.662;23.466;2023-07-31T02:47:23;0.00;;;0.00;;
10096;SDS011;5087;42.662;23.466;2023-07-31T02:49:52;0.00;;;0.00;;
10096;SDS011;5087;42.662;23.466;2023-07-31T02:52:19;0.00;;;0.00;;
10096;SDS011;5087;42.662;23.466;2023-07-31T02:54:46;0.13;;;0.13;;
10096;SDS011;5087;42.662;23.466;2023-07-31T02:57:13;0.67;;;0.33;;
10096;SDS011;5087;42.662;23.466;2023-07-31T02:59:41;0.00;;;0.00;;
10096;SDS011;5087;42.662;23.466;2023-07-31T03:02:08;0.13;;;0.13;;
10096;SDS011;5087;42.662;23.466;2023-07-31T03:04:36;0.00;;;0.00;;
10096;SDS011;5087;42.662;23.466;2023-07-31T03:07:05;0.00;;;0.00;;
10096;SDS011;5087;42.662;23.466;2023-07-31T03:09:32;0.00;;;0.00;;
10096;SDS011;5087;42.662;23.466;2023-07-31T03:11:59;0.00;;;0.00;;
10096;SDS011;5087;42.662;23.466;2023-07-31T03:14:27;0.00;;;0.00;;
10096;SDS011;5087;42.662;23.466;2023-07-31T03:16:54;0.47;;;0.03;;
10096;SDS011;5087;42.662;23.466;2023-07-31T03:19:21;0.00;;;0.00;;
10096;SDS011;5087;42.662;23.466;2023-07-31T03:21:49;0.00;;;0.00;;
10096;SDS011;5087;42.662;23.466;2023-07-31T03:24:17;0.00;;;0.00;;
10096;SDS011;5087;42.662;23.466;2023-07-31T03:26:45;0.00;;;0.00;;
10096;SDS011;5087;42.662;23.466;2023-07-31T03:29:12;0.00;;;0.00;;
10096;SDS011;5087;42.662;23.466;2023-07-31T03:31:39;0.00;;;0.00;;
10096;SDS011;5087;42.662;23.466;2023-07-31T03:34:07;0.00;;;0.00;;
10096;SDS011;5087;42.662;23.466;2023-07-31T03:36:34;1.10;;;0.27;;
10096;SDS011;5087;42.662;23.466;2023-07-31T03:39:01;0.53;;;0.27;;
10096;SDS011;5087;42.662;23.466;2023-07-31T03:41:31;0.00;;;0.00;;
10096;SDS011;5087;42.662;23.466;2023-07-31T03:43:58;0.00;;;0.00;;
10096;SDS011;5087;42.662;23.466;2023-07-31T03:46:25;0.00;;;0.00;;
10096;SDS011;5087;42.662;23.466;2023-07-31T03:48:53;0.20;;;0.20;;
10096;SDS011;5087;42.662;23.466;2023-07-31T03:51:20;0.00;;;0.00;;
10096;SDS011;5087;42.662;23.466;2023-07-31T03:53:47;0.00;;;0.00;;
10096;SDS011;5087;42.662;23.466;2023-07-31T03:56:14;0.40;;;0.40;;
10096;SDS011;5087;42.662;23.466;2023-07-31T03:58:43;0.00;;;0.00;;
10096;SDS011;5087;42.662;23.466;2023-07-31T04:01:11;0.00;;;0.00;;
10096;SDS011;5087;42.662;23.466;2023-07-31T04:03:39;0.00;;;0.00;;
10096;SDS011;5087;42.662;23.466;2023-07-31T04:06:07;0.00;;;0.00;;
10096;SDS011;5087;42.662;23.466;2023-07-31T04:08:34;0.07;;;0.07;;
10096;SDS011;5087;42.662;23.466;2023-07-31T04:11:01;0.00;;;0.00;;
10096;SDS011;5087;42.662;23.466;2023-07-31T04:13:29;0.30;;;0.30;;
10096;SDS011;5087;42.662;23.466;2023-07-31T04:15:58;0.00;;;0.00;;
10096;SDS011;5087;42.662;23.466;2023-07-31T04:18:25;0.00;;;0.00;;
10096;SDS011;5087;42.662;23.466;2023-07-31T04:20:53;0.00;;;0.00;;
10096;SDS011;5087;42.662;23.466;2023-07-31T04:23:20;0.10;;;0.10;;
10096;SDS011;5087;42.662;23.466;2023-07-31T04:25:47;0.00;;;0.00;;
10096;SDS011;5087;42.662;23.466;2023-07-31T04:28:14;0.10;;;0.10;;
10096;SDS011;5087;42.662;23.466;2023-07-31T04:30:42;0.40;;;0.40;;
10096;SDS011;5087;42.662;23.466;2023-07-31T04:33:11;0.00;;;0.00;;
10096;SDS011;5087;42.662;23.466;2023-07-31T04:35:38;0.83;;;0.83;;
10096;SDS011;5087;42.662;23.466;2023-07-31T04:38:05;0.00;;;0.00;;
10096;SDS011;5087;42.662;23.466;2023-07-31T04:40:33;0.10;;;0.10;;
10096;SDS011;5087;42.662;23.466;2023-07-31T04:43:00;0.10;;;0.10;;
10096;SDS011;5087;42.662;23.466;2023-07-31T04:45:27;0.00;;;0.00;;
10096;SDS011;5087;42.662;23.466;2023-07-31T04:47:55;0.33;;;0.33;;
10096;SDS011;5087;42.662;23.466;2023-07-31T04:50:23;0.03;;;0.03;;
10096;SDS011;5087;42.662;23.466;2023-07-31T04:52:50;0.20;;;0.20;;
10096;SDS011;5087;42.662;23.466;2023-07-31T04:55:17;0.17;;;0.17;;
10096;SDS011;5087;42.662;23.466;2023-07-31T04:57:45;0.40;;;0.40;;
10096;SDS011;5087;42.662;23.466;2023-07-31T05:00:12;0.03;;;0.03;;
10096;SDS011;5087;42.662;23.466;2023-07-31T05:02:39;0.20;;;0.20;;
10096;SDS011;5087;42.662;23.466;2023-07-31T05:05:06;0.87;;;0.80;;
10096;SDS011;5087;42.662;23.466;2023-07-31T05:07:35;0.30;;;0.30;;
10096;SDS011;5087;42.662;23.466;2023-07-31T05:10:03;0.20;;;0.20;;
10096;SDS011;5087;42.662;23.466;2023-07-31T05:12:34;0.10;;;0.10;;
10096;SDS011;5087;42.662;23.466;2023-07-31T05:15:01;0.30;;;0.30;;
10096;SDS011;5087;42.662;23.466;2023-07-31T05:17:29;0.20;;;0.20;;
10096;SDS011;5087;42.662;23.466;2023-07-31T05:19:56;0.20;;;0.20;;
10096;SDS011;5087;42.662;23.466;2023-07-31T05:22:23;0.10;;;0.10;;
10096;SDS011;5087;42.662;23.466;2023-07-31T05:24:52;0.10;;;0.10;;
10096;SDS011;5087;42.662;23.466;2023-07-31T05:27:20;0.30;;;0.30;;
10096;SDS011;5087;42.662;23.466;2023-07-31T05:29:47;0.30;;;0.30;;
10096;SDS011;5087;42.662;23.466;2023-07-31T05:32:15;0.10;;;0.10;;
10096;SDS011;5087;42.662;23.466;2023-07-31T05:34:42;0.13;;;0.13;;
10096;SDS011;5087;42.662;23.466;2023-07-31T05:37:09;0.63;;;0.63;;
10096;SDS011;5087;42.662;23.466;2023-07-31T05:39:39;0.20;;;0.20;;
10096;SDS011;5087;42.662;23.466;2023-07-31T05:42:08;0.43;;;0.43;;
10096;SDS011;5087;42.662;23.466;2023-07-31T05:44:37;0.30;;;0.30;;
10096;SDS011;5087;42.662;23.466;2023-07-31T05:47:04;0.40;;;0.40;;
10096;SDS011;5087;42.662;23.466;2023-07-31T05:49:36;0.40;;;0.40;;
10096;SDS011;5087;42.662;23.466;2023-07-31T05:52:04;0.40;;;0.40;;
10096;SDS011;5087;42.662;23.466;2023-07-31T05:54:31;0.40;;;0.40;;
10096;SDS011;5087;42.662;23.466;2023-07-31T05:56:59;0.87;;;0.87;;
10096;SDS011;5087;42.662;23.466;2023-07-31T05:59:28;0.70;;;0.70;;
10096;SDS011;5087;42.662;23.466;2023-07-31T06:01:58;0.40;;;0.40;;
10096;SDS011;5087;42.662;23.466;2023-07-31T06:04:25;0.50;;;0.50;;
10096;SDS011;5087;42.662;23.466;2023-07-31T06:06:53;0.60;;;0.60;;
10096;SDS011;5087;42.662;23.466;2023-07-31T06:09:20;0.50;;;0.50;;
10096;SDS011;5087;42.662;23.466;2023-07-31T06:11:49;0.50;;;0.50;;
10096;SDS011;5087;42.662;23.466;2023-07-31T06:14:16;0.70;;;0.70;;
10096;SDS011;5087;42.662;23.466;2023-07-31T06:16:45;0.53;;;0.53;;
10096;SDS011;5087;42.662;23.466;2023-07-31T06:19:12;0.80;;;0.80;;
10096;SDS011;5087;42.662;23.466;2023-07-31T06:21:39;0.70;;;0.70;;
10096;SDS011;5087;42.662;23.466;2023-07-31T06:24:09;0.50;;;0.50;;
10096;SDS011;5087;42.662;23.466;2023-07-31T06:26:37;0.50;;;0.50;;
10096;SDS011;5087;42.662;23.466;2023-07-31T06:29:07;0.60;;;0.60;;
10096;SDS011;5087;42.662;23.466;2023-07-31T06:31:34;1.30;;;1.30;;
10096;SDS011;5087;42.662;23.466;2023-07-31T06:34:03;0.60;;;0.60;;
10096;SDS011;5087;42.662;23.466;2023-07-31T06:36:33;0.60;;;0.60;;
10096;SDS011;5087;42.662;23.466;2023-07-31T06:39:00;1.00;;;1.00;;
10096;SDS011;5087;42.662;23.466;2023-07-31T06:41:29;0.57;;;0.57;;
10096;SDS011;5087;42.662;23.466;2023-07-31T06:43:56;0.60;;;0.60;;
10096;SDS011;5087;42.662;23.466;2023-07-31T06:46:24;0.57;;;0.57;;
10096;SDS011;5087;42.662;23.466;2023-07-31T06:48:52;0.50;;;0.50;;
10096;SDS011;5087;42.662;23.466;2023-07-31T06:51:21;0.80;;;0.80;;
10096;SDS011;5087;42.662;23.466;2023-07-31T06:53:48;0.60;;;0.60;;
10096;SDS011;5087;42.662;23.466;2023-07-31T06:56:15;0.50;;;0.50;;
10096;SDS011;5087;42.662;23.466;2023-07-31T06:58:43;0.53;;;0.53;;
10096;SDS011;5087;42.662;23.466;2023-07-31T07:01:11;0.60;;;0.60;;
10096;SDS011;5087;42.662;23.466;2023-07-31T07:03:38;0.60;;;0.60;;
10096;SDS011;5087;42.662;23.466;2023-07-31T07:06:06;0.80;;;0.80;;
10096;SDS011;5087;42.662;23.466;2023-07-31T07:08:38;0.70;;;0.70;;
10096;SDS011;5087;42.662;23.466;2023-07-31T07:11:05;0.70;;;0.70;;
10096;SDS011;5087;42.662;23.466;2023-07-31T07:13:32;0.80;;;0.80;;
10096;SDS011;5087;42.662;23.466;2023-07-31T07:15:59;0.80;;;0.80;;
10096;SDS011;5087;42.662;23.466;2023-07-31T07:18:27;0.63;;;0.63;;
10096;SDS011;5087;42.662;23.466;2023-07-31T07:20:54;0.60;;;0.60;;
10096;SDS011;5087;42.662;23.466;2023-07-31T07:23:23;0.50;;;0.50;;
10096;SDS011;5087;42.662;23.466;2023-07-31T07:25:53;0.50;;;0.50;;
10096;SDS011;5087;42.662;23.466;2023-07-31T07:28:23;0.50;;;0.50;;
10096;SDS011;5087;42.662;23.466;2023-07-31T07:30:54;0.47;;;0.47;;
10096;SDS011;5087;42.662;23.466;2023-07-31T07:33:21;0.60;;;0.60;;
10096;SDS011;5087;42.662;23.466;2023-07-31T07:35:48;0.50;;;0.50;;
10096;SDS011;5087;42.662;23.466;2023-07-31T07:38:15;0.50;;;0.50;;
10096;SDS011;5087;42.662;23.466;2023-07-31T07:40:44;0.70;;;0.70;;
10096;SDS011;5087;42.662;23.466;2023-07-31T07:43:13;0.60;;;0.60;;
10096;SDS011;5087;42.662;23.466;2023-07-31T07:45:40;0.60;;;0.60;;
10096;SDS011;5087;42.662;23.466;2023-07-31T07:48:07;0.60;;;0.60;;
10096;SDS011;5087;42.662;23.466;2023-07-31T07:50:35;0.53;;;0.53;;
10096;SDS011;5087;42.662;23.466;2023-07-31T07:53:02;0.70;;;0.70;;
10096;SDS011;5087;42.662;23.466;2023-07-31T07:55:30;0.53;;;0.53;;
10096;SDS011;5087;42.662;23.466;2023-07-31T07:57:57;0.60;;;0.60;;
10096;SDS011;5087;42.662;23.466;2023-07-31T08:00:26;0.50;;;0.50;;
10096;SDS011;5087;42.662;23.466;2023-07-31T08:02:53;0.90;;;0.90;;
10096;SDS011;5087;42.662;23.466;2023-07-31T08:05:22;0.80;;;0.80;;
10096;SDS011;5087;42.662;23.466;2023-07-31T08:07:49;0.50;;;0.50;;
10096;SDS011;5087;42.662;23.466;2023-07-31T08:10:17;0.50;;;0.50;;
10096;SDS011;5087;42.662;23.466;2023-07-31T08:12:44;0.50;;;0.50;;
10096;SDS011;5087;42.662;23.466;2023-07-31T08:15:13;0.50;;;0.50;;
10096;SDS011;5087;42.662;23.466;2023-07-31T08:17:42;0.70;;;0.70;;
10096;SDS011;5087;42.662;23.466;2023-07-31T08:20:10;0.50;;;0.50;;
10096;SDS011;5087;42.662;23.466;2023-07-31T08:22:38;0.43;;;0.43;;
10096;SDS011;5087;42.662;23.466;2023-07-31T08:25:06;0.40;;;0.40;;
10096;SDS011;5087;42.662;23.466;2023-07-31T08:27:33;0.30;;;0.30;;
10096;SDS011;5087;42.662;23.466;2023-07-31T08:30:00;0.37;;;0.37;;
10096;SDS011;5087;42.662;23.466;2023-07-31T08:32:27;0.30;;;0.30;;
10096;SDS011;5087;42.662;23.466;2023-07-31T08:34:56;0.30;;;0.30;;
10096;SDS011;5087;42.662;23.466;2023-07-31T08:37:23;0.30;;;0.30;;
10096;SDS011;5087;42.662;23.466;2023-07-31T08:39:51;0.50;;;0.50;;
10096;SDS011;5087;42.662;23.466;2023-07-31T08:42:19;0.30;;;0.30;;
10096;SDS011;5087;42.662;23.466;2023-07-31T08:44:46;0.50;;;0.50;;
10096;SDS011;5087;42.662;23.466;2023-07-31T08:47:14;0.50;;;0.50;;
10096;SDS011;5087;42.662;23.466;2023-07-31T08:49:43;0.30;;;0.30;;
10096;SDS011;5087;42.662;23.466;2023-07-31T08:52:19;0.30;;;0.30;;
10096;SDS011;5087;42.662;23.466;2023-07-31T08:54:46;0.30;;;0.30;;
10096;SDS011;5087;42.662;23.466;2023-07-31T08:57:16;0.30;;;0.30;;
10096;SDS011;5087;42.662;23.466;2023-07-31T08:59:44;0.30;;;0.30;;
10096;SDS011;5087;42.662;23.466;2023-07-31T09:02:12;0.20;;;0.20;;
10096;SDS011;5087;42.662;23.466;2023-07-31T09:04:45;0.30;;;0.30;;
10096;SDS011;5087;42.662;23.466;2023-07-31T09:07:16;0.30;;;0.30;;
10096;SDS011;5087;42.662;23.466;2023-07-31T09:09:45;0.27;;;0.27;;
10096;SDS011;5087;42.662;23.466;2023-07-31T09:12:13;0.20;;;0.20;;
10096;SDS011;5087;42.662;23.466;2023-07-31T09:14:40;0.33;;;0.33;;
10096;SDS011;5087;42.662;23.466;2023-07-31T09:17:10;0.30;;;0.30;;
10096;SDS011;5087;42.662;23.466;2023-07-31T09:19:40;0.20;;;0.20;;
10096;SDS011;5087;42.662;23.466;2023-07-31T09:22:08;0.43;;;0.40;;
10096;SDS011;5087;42.662;23.466;2023-07-31T09:24:35;0.20;;;0.20;;
10096;SDS011;5087;42.662;23.466;2023-07-31T09:27:05;0.20;;;0.20;;
10096;SDS011;5087;42.662;23.466;2023-07-31T09:29:33;0.20;;;0.20;;
10096;SDS011;5087;42.662;23.466;2023-07-31T09:32:00;0.27;;;0.27;;
10096;SDS011;5087;42.662;23.466;2023-07-31T09:34:37;0.20;;;0.20;;
10096;SDS011;5087;42.662;23.466;2023-07-31T09:37:05;0.20;;;0.20;;
10096;SDS011;5087;42.662;23.466;2023-07-31T09:39:32;0.20;;;0.20;;
10096;SDS011;5087;42.662;23.466;2023-07-31T09:42:14;0.53;;;0.53;;
10096;SDS011;5087;42.662;23.466;2023-07-31T09:44:51;0.30;;;0.30;;
10096;SDS011;5087;42.662;23.466;2023-07-31T09:47:33;0.27;;;0.27;;
10096;SDS011;5087;42.662;23.466;2023-07-31T09:50:01;0.20;;;0.20;;
10096;SDS011;5087;42.662;23.466;2023-07-31T09:52:33;0.17;;;0.17;;
10096;SDS011;5087;42.662;23.466;2023-07-31T09:55:00;0.27;;;0.27;;
10096;SDS011;5087;42.662;23.466;2023-07-31T09:57:29;0.57;;;0.57;;
10096;SDS011;5087;42.662;23.466;2023-07-31T09:59:58;0.40;;;0.40;;
10096;SDS011;5087;42.662;23.466;2023-07-31T10:02:25;0.30;;;0.30;;
10096;SDS011;5087;42.662;23.466;2023-07-31T10:04:57;0.20;;;0.20;;
10096;SDS011;5087;42.662;23.466;2023-07-31T10:07:26;0.30;;;0.30;;
10096;SDS011;5087;42.662;23.466;2023-07-31T10:09:56;0.20;;;0.20;;
10096;SDS011;5087;42.662;23.466;2023-07-31T10:12:26;0.30;;;0.30;;
10096;SDS011;5087;42.662;23.466;2023-07-31T10:14:58;0.20;;;0.20;;
10096;SDS011;5087;42.662;23.466;2023-07-31T10:17:28;0.33;;;0.33;;
10096;SDS011;5087;42.662;23.466;2023-07-31T10:20:00;0.30;;;0.30;;
10096;SDS011;5087;42.662;23.466;2023-07-31T10:22:32;0.20;;;0.20;;
10096;SDS011;5087;42.662;23.466;2023-07-31T10:25:00;0.40;;;0.40;;
10096;SDS011;5087;42.662;23.466;2023-07-31T10:27:30;0.30;;;0.30;;
10096;SDS011;5087;42.662;23.466;2023-07-31T10:30:00;0.20;;;0.20;;
10096;SDS011;5087;42.662;23.466;2023-07-31T10:32:31;0.13;;;0.13;;
10096;SDS011;5087;42.662;23.466;2023-07-31T10:35:01;0.20;;;0.20;;
10096;SDS011;5087;42.662;23.466;2023-07-31T10:37:30;0.10;;;0.10;;
10096;SDS011;5087;42.662;23.466;2023-07-31T10:40:04;0.10;;;0.10;;
10096;SDS011;5087;42.662;23.466;2023-07-31T10:42:37;0.13;;;0.13;;
10096;SDS011;5087;42.662;23.466;2023-07-31T10:45:05;0.20;;;0.20;;
10096;SDS011;5087;42.662;23.466;2023-07-31T10:47:38;0.10;;;0.10;;
10096;SDS011;5087;42.662;23.466;2023-07-31T10:50:18;0.10;;;0.10;;
10096;SDS011;5087;42.662;23.466;2023-07-31T10:52:47;0.10;;;0.10;;
10096;SDS011;5087;42.662;23.466;2023-07-31T10:55:16;0.17;;;0.17;;
10096;SDS011;5087;42.662;23.466;2023-07-31T10:57:52;0.10;;;0.10;;
10096;SDS011;5087;42.662;23.466;2023-07-31T11:00:20;0.10;;;0.10;;
10096;SDS011;5087;42.662;23.466;2023-07-31T11:03:02;0.30;;;0.30;;
10096;SDS011;5087;42.662;23.466;2023-07-31T11:08:21;0.20;;;0.20;;
10096;SDS011;5087;42.662;23.466;2023-07-31T11:10:49;0.20;;;0.20;;
10096;SDS011;5087;42.662;23.466;2023-07-31T11:13:19;0.10;;;0.10;;
10096;SDS011;5087;42.662;23.466;2023-07-31T11:15:46;0.10;;;0.10;;
10096;SDS011;5087;42.662;23.466;2023-07-31T11:18:13;0.10;;;0.10;;
10096;SDS011;5087;42.662;23.466;2023-07-31T11:20:42;0.20;;;0.20;;
10096;SDS011;5087;42.662;23.466;2023-07-31T11:23:10;0.10;;;0.10;;
10096;SDS011;5087;42.662;23.466;2023-07-31T11:25:39;0.10;;;0.10;;
10096;SDS011;5087;42.662;23.466;2023-07-31T11:28:08;0.10;;;0.10;;
10096;SDS011;5087;42.662;23.466;2023-07-31T11:30:38;0.10;;;0.10;;
10096;SDS011;5087;42.662;23.466;2023-07-31T11:33:07;0.10;;;0.10;;
10096;SDS011;5087;42.662;23.466;2023-07-31T11:35:36;0.10;;;0.10;;
10096;SDS011;5087;42.662;23.466;2023-07-31T11:38:10;0.10;;;0.10;;
10096;SDS011;5087;42.662;23.466;2023-07-31T11:40:47;0.10;;;0.10;;
10096;SDS011;5087;42.662;23.466;2023-07-31T11:43:14;0.70;;;0.70;;
10096;SDS011;5087;42.662;23.466;2023-07-31T11:45:50;0.10;;;0.10;;
10096;SDS011;5087;42.662;23.466;2023-07-31T11:48:19;0.10;;;0.10;;
10096;SDS011;5087;42.662;23.466;2023-07-31T11:50:48;0.10;;;0.10;;
10096;SDS011;5087;42.662;23.466;2023-07-31T11:53:17;0.10;;;0.10;;
10096;SDS011;5087;42.662;23.466;2023-07-31T11:55:46;0.20;;;0.20;;
10096;SDS011;5087;42.662;23.466;2023-07-31T11:58:14;0.20;;;0.20;;
10096;SDS011;5087;42.662;23.466;2023-07-31T12:00:43;0.20;;;0.20;;
10096;SDS011;5087;42.662;23.466;2023-07-31T12:03:15;0.10;;;0.10;;
10096;SDS011;5087;42.662;23.466;2023-07-31T12:05:43;0.10;;;0.10;;
10096;SDS011;5087;42.662;23.466;2023-07-31T12:08:20;0.10;;;0.10;;
10096;SDS011;5087;42.662;23.466;2023-07-31T12:10:49;0.17;;;0.17;;
10096;SDS011;5087;42.662;23.466;2023-07-31T12:13:20;0.23;;;0.17;;
10096;SDS011;5087;42.662;23.466;2023-07-31T12:15:48;0.93;;;0.30;;
10096;SDS011;5087;42.662;23.466;2023-07-31T12:18:18;0.10;;;0.10;;
10096;SDS011;5087;42.662;23.466;2023-07-31T12:20:47;0.10;;;0.10;;
10096;SDS011;5087;42.662;23.466;2023-07-31T12:23:16;0.10;;;0.10;;
10096;SDS011;5087;42.662;23.466;2023-07-31T12:25:44;0.10;;;0.10;;
10096;SDS011;5087;42.662;23.466;2023-07-31T12:28:11;0.20;;;0.20;;
10096;SDS011;5087;42.662;23.466;2023-07-31T12:30:39;0.10;;;0.10;;
10096;SDS011;5087;42.662;23.466;2023-07-31T12:33:12;0.10;;;0.10;;
10096;SDS011;5087;42.662;23.466;2023-07-31T12:35:43;0.27;;;0.27;;
10096;SDS011;5087;42.662;23.466;2023-07-31T12:38:14;0.10;;;0.10;;
10096;SDS011;5087;42.662;23.466;2023-07-31T12:40:46;0.20;;;0.20;;
10096;SDS011;5087;42.662;23.466;2023-07-31T12:43:13;0.20;;;0.20;;
10096;SDS011;5087;42.662;23.466;2023-07-31T12:45:41;0.10;;;0.10;;
10096;SDS011;5087;42.662;23.466;2023-07-31T12:48:08;0.10;;;0.10;;
10096;SDS011;5087;42.662;23.466;2023-07-31T12:50:35;0.30;;;0.30;;
10096;SDS011;5087;42.662;23.466;2023-07-31T12:53:04;0.20;;;0.20;;
10096;SDS011;5087;42.662;23.466;2023-07-31T12:55:32;0.10;;;0.10;;
10096;SDS011;5087;42.662;23.466;2023-07-31T13:15:15;0.10;;;0.10;;
10096;SDS011;5087;42.662;23.466;2023-07-31T13:17:43;0.20;;;0.20;;
10096;SDS011;5087;42.662;23.466;2023-07-31T13:20:10;0.80;;;0.80;;
10096;SDS011;5087;42.662;23.466;2023-07-31T13:22:39;0.10;;;0.10;;
10096;SDS011;5087;42.662;23.466;2023-07-31T13:25:07;0.10;;;0.10;;
10096;SDS011;5087;42.662;23.466;2023-07-31T13:41:14;0.30;;;0.30;;
10096;SDS011;5087;42.662;23.466;2023-07-31T13:43:42;0.50;;;0.30;;
10096;SDS011;5087;42.662;23.466;2023-07-31T13:46:12;0.10;;;0.10;;
10096;SDS011;5087;42.662;23.466;2023-07-31T13:48:39;0.20;;;0.20;;
10096;SDS011;5087;42.662;23.466;2023-07-31T13:51:07;0.10;;;0.10;;
10096;SDS011;5087;42.662;23.466;2023-07-31T13:53:34;0.10;;;0.10;;
10096;SDS011;5087;42.662;23.466;2023-07-31T13:56:01;0.10;;;0.10;;
10096;SDS011;5087;42.662;23.466;2023-07-31T13:58:30;0.10;;;0.10;;
10096;SDS011;5087;42.662;23.466;2023-07-31T14:00:57;0.20;;;0.20;;
10096;SDS011;5087;42.662;23.466;2023-07-31T14:03:24;0.83;;;0.20;;
10096;SDS011;5087;42.662;23.466;2023-07-31T14:05:52;0.10;;;0.10;;
10096;SDS011;5087;42.662;23.466;2023-07-31T14:08:20;0.10;;;0.10;;
10096;SDS011;5087;42.662;23.466;2023-07-31T14:10:47;0.10;;;0.10;;
10096;SDS011;5087;42.662;23.466;2023-07-31T14:13:15;0.10;;;0.10;;
10096;SDS011;5087;42.662;23.466;2023-07-31T14:15:48;0.10;;;0.10;;
10096;SDS011;5087;42.662;23.466;2023-07-31T14:18:15;0.10;;;0.10;;
10096;SDS011;5087;42.662;23.466;2023-07-31T14:20:43;0.10;;;0.10;;
10096;SDS011;5087;42.662;23.466;2023-07-31T14:23:10;0.10;;;0.10;;
10096;SDS011;5087;42.662;23.466;2023-07-31T14:25:37;0.27;;;0.27;;
10096;SDS011;5087;42.662;23.466;2023-07-31T14:28:04;0.17;;;0.17;;
10096;SDS011;5087;42.662;23.466;2023-07-31T14:30:31;0.10;;;0.10;;
10096;SDS011;5087;42.662;23.466;2023-07-31T14:33:00;0.30;;;0.30;;
10096;SDS011;5087;42.662;23.466;2023-07-31T14:35:27;0.10;;;0.10;;
10096;SDS011;5087;42.662;23.466;2023-07-31T14:37:55;0.10;;;0.10;;
10096;SDS011;5087;42.662;23.466;2023-07-31T14:40:23;0.10;;;0.10;;
10096;SDS011;5087;42.662;23.466;2023-07-31T14:42:50;0.10;;;0.10;;
10096;SDS011;5087;42.662;23.466;2023-07-31T14:45:17;0.10;;;0.10;;
10096;SDS011;5087;42.662;23.466;2023-07-31T14:47:45;0.10;;;0.10;;
10096;SDS011;5087;42.662;23.466;2023-07-31T14:50:14;0.20;;;0.20;;
10096;SDS011;5087;42.662;23.466;2023-07-31T14:52:42;0.27;;;0.27;;
10096;SDS011;5087;42.662;23.466;2023-07-31T14:55:09;0.10;;;0.10;;
10096;SDS011;5087;42.662;23.466;2023-07-31T14:57:37;0.10;;;0.10;;
10096;SDS011;5087;42.662;23.466;2023-07-31T15:00:05;0.10;;;0.10;;
10096;SDS011;5087;42.662;23.466;2023-07-31T15:02:33;0.10;;;0.10;;
10096;SDS011;5087;42.662;23.466;2023-07-31T15:05:01;0.10;;;0.10;;
10096;SDS011;5087;42.662;23.466;2023-07-31T15:07:29;0.40;;;0.40;;
10096;SDS011;5087;42.662;23.466;2023-07-31T15:09:57;0.13;;;0.13;;
10096;SDS011;5087;42.662;23.466;2023-07-31T15:12:30;0.10;;;0.10;;
10096;SDS011;5087;42.662;23.466;2023-07-31T15:14:58;0.10;;;0.10;;
10096;SDS011;5087;42.662;23.466;2023-07-31T15:17:25;0.10;;;0.10;;
10096;SDS011;5087;42.662;23.466;2023-07-31T15:19:53;0.20;;;0.20;;
10096;SDS011;5087;42.662;23.466;2023-07-31T15:22:21;0.17;;;0.17;;
10096;SDS011;5087;42.662;23.466;2023-07-31T15:24:51;0.20;;;0.20;;
10096;SDS011;5087;42.662;23.466;2023-07-31T15:27:18;0.20;;;0.20;;
10096;SDS011;5087;42.662;23.466;2023-07-31T15:29:46;0.30;;;0.30;;